createdAt,value
2019-04-20T00:00:41.678Z,44.58
2019-04-20T00:03:09.598Z,44.58
2019-04-20T00:05:41.295Z,69.00
2019-04-20T00:08:16.817Z,62.88
2019-04-20T00:10:54.335Z,48.80
2019-04-20T00:13:24.247Z,43.48
2019-04-20T00:15:49.546Z,55.05
2019-04-20T00:18:21.074Z,52.80
2019-04-20T00:21:00.244Z,52.83
2019-04-20T00:23:36.747Z,49.23
2019-04-20T00:26:32.151Z,53.80
2019-04-20T00:29:06.938Z,47.73
2019-04-20T00:31:39.288Z,57.05
2019-04-20T00:34:03.787Z,42.67
2019-04-20T00:36:27.262Z,58.05
2019-04-20T00:39:03.714Z,55.90
2019-04-20T00:41:35.107Z,53.85
2019-04-20T00:44:12.241Z,57.60
2019-04-20T00:46:53.491Z,61.58
2019-04-20T00:49:27.291Z,57.60
2019-04-20T00:52:05.170Z,59.38
2019-04-20T00:54:13.627Z,64.95
2019-04-20T00:56:45.349Z,64.30
2019-04-20T00:59:27.570Z,68.72
2019-04-20T01:02:06.433Z,68.70
2019-04-20T01:04:44.685Z,71.07
2019-04-20T01:07:06.209Z,72.47
2019-04-20T01:09:27.039Z,83.75
2019-04-20T01:11:58.469Z,68.35
2019-04-20T01:14:37.945Z,59.27
2019-04-20T01:17:11.406Z,59.58
2019-04-20T01:19:32.842Z,62.50
2019-04-20T01:22:07.888Z,65.75
2019-04-20T01:24:39.891Z,66.40
2019-04-20T01:27:23.682Z,60.28
2019-04-20T01:29:46.766Z,62.08
2019-04-20T01:32:20.986Z,56.48
2019-04-20T01:34:55.090Z,57.90
2019-04-20T01:37:31.735Z,59.35
2019-04-20T01:39:52.021Z,58.17
2019-04-20T01:42:19.254Z,62.50
2019-04-20T01:44:52.364Z,62.20
2019-04-20T01:47:23.847Z,59.13
2019-04-20T01:49:59.895Z,63.30
2019-04-20T01:52:34.990Z,66.37
2019-04-20T01:55:27.782Z,57.23
2019-04-20T01:58:07.701Z,63.45
2019-04-20T02:00:32.772Z,64.35
2019-04-20T02:03:15.004Z,58.38
2019-04-20T02:05:51.427Z,70.85
2019-04-20T02:08:21.477Z,56.73
2019-04-20T02:10:54.427Z,57.62
2019-04-20T02:13:26.389Z,65.95
2019-04-20T02:16:11.478Z,65.83
2019-04-20T02:18:44.237Z,68.90
2019-04-20T02:21:25.733Z,66.55
2019-04-20T02:23:48.287Z,83.72
2019-04-20T02:26:12.528Z,63.25
2019-04-20T02:29:05.686Z,63.40
2019-04-20T02:32:01.466Z,60.58
2019-04-20T02:34:29.228Z,55.73
2019-04-20T02:37:30.182Z,60.43
2019-04-20T02:39:46.254Z,56.35
2019-04-20T02:42:17.588Z,60.83
2019-04-20T02:47:24.633Z,50.83
2019-04-20T02:49:52.410Z,52.78
2019-04-20T02:52:33.512Z,55.00
2019-04-20T02:57:33.498Z,63.58
2019-04-20T03:00:09.145Z,55.58
2019-04-20T03:02:16.739Z,52.00
2019-04-20T03:04:40.005Z,62.17
2019-04-20T03:07:15.684Z,51.70
2019-04-20T03:09:50.167Z,61.83
2019-04-20T03:12:32.886Z,61.00
2019-04-20T03:14:52.786Z,54.55
2019-04-20T03:17:37.097Z,63.05
2019-04-20T03:19:57.271Z,57.60
2019-04-20T03:23:00.952Z,62.88
2019-04-20T03:25:15.216Z,67.08
2019-04-20T03:27:40.982Z,62.88
2019-04-20T03:31:16.511Z,56.73
2019-04-20T03:35:46.026Z,61.77
2019-04-20T03:38:10.707Z,57.65
2019-04-20T03:40:38.969Z,60.12
2019-04-20T03:42:54.812Z,61.50
2019-04-20T03:45:27.084Z,61.08
2019-04-20T03:48:10.270Z,63.48
2019-04-20T03:50:50.446Z,61.25
2019-04-20T03:53:25.226Z,62.10
2019-04-20T03:56:18.408Z,63.68
2019-04-20T03:58:47.144Z,59.13
2019-04-20T04:01:35.853Z,59.35
2019-04-20T04:04:05.373Z,62.25
2019-04-20T04:08:57.594Z,59.08
2019-04-20T04:11:31.492Z,56.33
2019-04-20T04:13:48.185Z,61.40
2019-04-20T04:16:21.886Z,57.60
2019-04-20T04:19:01.583Z,61.25
2019-04-20T04:21:41.145Z,58.28
2019-04-20T04:24:09.575Z,63.70
2019-04-20T04:26:42.752Z,82.53
2019-04-20T04:29:27.215Z,105.32
2019-04-20T04:32:03.767Z,98.30
2019-04-20T04:34:27.471Z,93.53
2019-04-20T04:37:00.531Z,72.60
2019-04-20T04:39:32.237Z,66.53
2019-04-20T04:42:11.653Z,68.15
2019-04-20T04:44:26.387Z,59.55
2019-04-20T04:46:53.386Z,66.57
2019-04-20T04:49:25.823Z,66.40
2019-04-20T04:51:58.754Z,61.08
2019-04-20T04:54:28.921Z,61.80
2019-04-20T04:56:52.658Z,64.72
2019-04-20T04:59:24.004Z,71.02
2019-04-20T05:01:56.733Z,67.90
2019-04-20T05:05:07.990Z,58.70
2019-04-20T05:07:46.385Z,60.55
2019-04-20T05:10:03.549Z,70.25
2019-04-20T05:12:35.942Z,71.40
2019-04-20T05:15:21.192Z,64.72
2019-04-20T05:18:02.071Z,71.10
2019-04-20T05:20:37.245Z,64.85
2019-04-20T05:23:06.061Z,70.10
2019-04-20T05:25:56.964Z,61.50
2019-04-20T05:28:27.620Z,58.23
2019-04-20T05:30:52.486Z,59.00
2019-04-20T05:33:30.235Z,58.42
2019-04-20T05:36:16.373Z,63.05
2019-04-20T05:38:47.203Z,54.98
2019-04-20T05:41:12.830Z,60.25
2019-04-20T05:43:49.315Z,71.90
2019-04-20T05:46:21.691Z,59.70
2019-04-20T05:48:59.759Z,61.40
2019-04-20T05:51:29.514Z,62.90
2019-04-20T05:54:01.144Z,57.15
2019-04-20T05:56:35.479Z,63.30
2019-04-20T05:58:59.427Z,57.78
2019-04-20T06:01:40.857Z,61.63
2019-04-20T06:04:04.244Z,60.20
2019-04-20T06:06:37.735Z,54.35
2019-04-20T06:09:23.048Z,62.43
2019-04-20T06:12:07.507Z,63.55
2019-04-20T06:14:31.616Z,59.77
2019-04-20T06:17:11.275Z,64.15
2019-04-20T06:19:54.655Z,58.40
2019-04-20T06:22:37.905Z,57.95
2019-04-20T06:27:45.074Z,61.28
2019-04-20T06:30:12.277Z,58.23
2019-04-20T06:33:31.314Z,62.43
2019-04-20T06:41:05.250Z,53.73
2019-04-20T06:43:31.487Z,50.33
2019-04-20T06:46:09.817Z,39.73
2019-04-20T06:48:40.286Z,56.40
2019-04-20T06:51:09.226Z,39.45
2019-04-20T06:53:47.393Z,38.70
2019-04-20T06:56:30.727Z,44.35
2019-04-20T06:59:20.010Z,36.90
2019-04-20T07:01:40.221Z,42.48
2019-04-20T07:04:29.014Z,35.35
2019-04-20T07:09:18.413Z,37.65
2019-04-20T07:11:42.661Z,33.95
2019-04-20T07:13:59.636Z,52.10
2019-04-20T07:16:53.315Z,33.18
2019-04-20T07:19:31.240Z,39.60
2019-04-20T07:22:18.515Z,43.90
2019-04-20T07:27:19.785Z,38.33
2019-04-20T07:29:58.975Z,43.85
2019-04-20T07:32:46.123Z,41.45
2019-04-20T07:35:09.856Z,34.10
2019-04-20T07:40:16.183Z,37.30
2019-04-20T07:42:52.378Z,33.88
2019-04-20T07:45:28.404Z,39.75
2019-04-20T07:47:59.147Z,31.45
2019-04-20T07:50:22.850Z,29.63
2019-04-20T07:52:51.416Z,32.90
2019-04-20T07:55:37.056Z,30.75
2019-04-20T07:57:57.536Z,28.35
2019-04-20T08:00:53.264Z,24.23
2019-04-20T08:03:20.436Z,29.82
2019-04-20T08:08:16.817Z,22.50
2019-04-20T08:10:45.244Z,27.57
2019-04-20T08:15:58.747Z,20.30
2019-04-20T08:20:58.482Z,21.85
2019-04-20T08:23:29.568Z,22.67
2019-04-20T08:25:54.380Z,26.95
2019-04-20T08:28:23.298Z,24.90
2019-04-20T08:31:13.913Z,29.00
2019-04-20T08:34:07.521Z,28.23
2019-04-20T08:36:36.041Z,27.10
2019-04-20T08:41:37.025Z,27.50
2019-04-20T08:46:55.813Z,30.57
2019-04-20T08:49:22.031Z,27.05
2019-04-20T08:51:55.040Z,26.73
2019-04-20T08:54:17.623Z,27.42
2019-04-20T08:56:42.476Z,28.10
2019-04-20T08:59:11.521Z,28.40
2019-04-20T09:01:42.639Z,26.97
2019-04-20T09:04:20.171Z,23.12
2019-04-20T09:06:58.790Z,26.45
2019-04-20T09:09:44.534Z,22.75
2019-04-20T09:12:07.546Z,29.75
2019-04-20T09:14:22.063Z,15.58
2019-04-20T09:17:14.114Z,21.33
2019-04-20T09:19:52.689Z,16.00
2019-04-20T09:22:45.726Z,27.07
2019-04-20T09:27:47.651Z,28.12
2019-04-20T09:30:30.315Z,18.40
2019-04-20T09:33:14.335Z,22.90
2019-04-20T09:35:43.249Z,17.27
2019-04-20T09:38:14.599Z,19.20
2019-04-20T09:40:50.588Z,17.37
2019-04-20T09:43:08.806Z,16.50
2019-04-20T09:45:48.131Z,23.52
2019-04-20T09:48:23.345Z,24.60
2019-04-20T09:51:11.538Z,17.20
2019-04-20T09:53:33.878Z,20.75
2019-04-20T09:56:06.616Z,13.93
2019-04-20T09:58:45.164Z,20.80
2019-04-20T10:01:11.110Z,21.62
2019-04-20T10:03:29.126Z,34.03
2019-04-20T10:05:59.427Z,20.20
2019-04-20T10:08:34.009Z,17.42
2019-04-20T10:11:01.634Z,21.87
2019-04-20T10:13:32.211Z,19.23
2019-04-20T10:16:03.773Z,18.48
2019-04-20T10:18:39.283Z,16.32
2019-04-20T10:21:07.340Z,17.70
2019-04-20T10:23:38.701Z,18.25
2019-04-20T10:26:09.126Z,15.65
2019-04-20T10:28:39.493Z,15.93
2019-04-20T10:31:10.656Z,13.13
2019-04-20T10:33:41.753Z,23.87
2019-04-20T10:36:17.348Z,13.28
2019-04-20T10:38:48.523Z,13.75
2019-04-20T10:41:29.622Z,11.88
2019-04-20T10:44:00.768Z,15.28
2019-04-20T10:46:31.195Z,16.55
2019-04-20T10:49:04.306Z,16.52
2019-04-20T10:51:35.595Z,14.38
2019-04-20T10:54:06.699Z,12.65
2019-04-20T10:56:41.451Z,13.95
2019-04-20T10:59:11.941Z,14.90
2019-04-20T11:01:43.419Z,11.75
2019-04-20T11:04:14.693Z,10.08
2019-04-20T11:06:46.925Z,24.20
2019-04-20T11:09:18.474Z,17.67
2019-04-20T11:11:50.203Z,34.23
2019-04-20T11:14:26.376Z,20.27
2019-04-20T11:16:52.595Z,15.15
2019-04-20T11:19:23.334Z,17.67
2019-04-20T11:21:54.450Z,15.38
2019-04-20T11:24:25.948Z,17.23
2019-04-20T11:26:56.429Z,18.65
2019-04-20T11:29:26.751Z,16.02
2019-04-20T11:31:58.133Z,13.15
2019-04-20T11:34:42.465Z,14.28
2019-04-20T11:37:13.413Z,17.60
2019-04-20T11:39:45.165Z,15.03
2019-04-20T11:42:17.390Z,17.12
2019-04-20T11:44:48.924Z,12.90
2019-04-20T11:47:19.196Z,12.93
2019-04-20T11:49:49.507Z,16.57
2019-04-20T11:52:21.541Z,18.55
2019-04-20T11:54:54.563Z,16.35
2019-04-20T11:57:29.265Z,16.60
2019-04-20T12:00:01.126Z,15.55
2019-04-20T12:02:44.378Z,18.20
2019-04-20T12:05:30.537Z,19.60
2019-04-20T12:08:05.077Z,13.88
2019-04-20T12:10:37.094Z,14.00
2019-04-20T12:13:07.935Z,16.07
2019-04-20T12:15:38.956Z,17.17
2019-04-20T12:18:09.615Z,19.23
2019-04-20T12:20:40.878Z,14.70
2019-04-20T12:23:12.676Z,20.70
2019-04-20T12:25:44.641Z,12.88
2019-04-20T12:28:15.755Z,15.28
2019-04-20T12:30:46.174Z,20.97
2019-04-20T12:33:17.694Z,18.00
2019-04-20T12:35:48.292Z,34.43
2019-04-20T12:38:19.104Z,15.70
2019-04-20T12:40:50.327Z,18.82
2019-04-20T12:43:20.739Z,17.52
2019-04-20T12:45:51.691Z,13.05
2019-04-20T12:48:22.135Z,10.55
2019-04-20T12:50:57.474Z,11.75
2019-04-20T12:53:28.628Z,8.35
2019-04-20T12:55:59.236Z,10.08
2019-04-20T12:58:30.570Z,14.58
2019-04-20T13:01:02.474Z,8.78
2019-04-20T13:03:33.495Z,13.45
2019-04-20T13:06:03.849Z,13.53
2019-04-20T13:08:41.158Z,10.35
2019-04-20T13:11:08.760Z,13.55
2019-04-20T13:13:44.212Z,19.07
2019-04-20T13:16:20.612Z,18.27
2019-04-20T13:18:55.232Z,12.93
2019-04-20T13:21:27.002Z,13.32
2019-04-20T13:23:58.495Z,9.93
2019-04-20T13:26:29.016Z,11.48
2019-04-20T13:29:11.070Z,14.03
2019-04-20T13:31:37.943Z,15.32
2019-04-20T13:34:09.557Z,17.87
2019-04-20T13:36:40.484Z,17.02
2019-04-20T13:39:10.705Z,10.08
2019-04-20T13:41:42.217Z,12.73
2019-04-20T13:44:13.668Z,14.85
2019-04-20T13:46:52.182Z,11.75
2019-04-20T13:49:23.019Z,10.98
2019-04-20T13:51:54.578Z,17.57
2019-04-20T13:54:28.007Z,13.32
2019-04-20T13:57:00.160Z,12.03
2019-04-20T13:59:50.738Z,17.00
2019-04-20T14:02:23.472Z,14.43
2019-04-20T14:04:57.424Z,13.48
2019-04-20T14:07:29.295Z,12.17
2019-04-20T14:09:59.609Z,14.78
2019-04-20T14:12:36.890Z,18.30
2019-04-20T14:15:02.874Z,12.05
2019-04-20T14:17:34.978Z,12.58
2019-04-20T14:20:11.425Z,14.18
2019-04-20T14:22:38.920Z,13.83
2019-04-20T14:25:09.492Z,12.53
2019-04-20T14:27:40.272Z,15.50
2019-04-20T14:30:11.134Z,13.30
2019-04-20T14:32:42.942Z,17.40
2019-04-20T14:35:14.523Z,11.60
2019-04-20T14:37:45.971Z,11.95
2019-04-20T14:40:18.665Z,11.83
2019-04-20T14:42:53.000Z,20.05
2019-04-20T14:47:54.038Z,12.90
2019-04-20T14:50:27.521Z,15.25
2019-04-20T14:52:57.920Z,14.98
2019-04-20T14:55:29.224Z,20.45
2019-04-20T14:58:31.442Z,12.05
2019-04-20T15:01:23.037Z,16.82
2019-04-20T15:03:59.858Z,16.15
2019-04-20T15:06:25.820Z,9.78
2019-04-20T15:09:00.954Z,12.23
2019-04-20T15:11:38.338Z,17.35
2019-04-20T15:14:08.860Z,11.90
2019-04-20T15:16:40.434Z,12.28
2019-04-20T15:19:13.785Z,12.98
2019-04-20T15:21:47.294Z,19.23
2019-04-20T15:24:17.904Z,8.25
2019-04-20T15:26:48.760Z,19.92
2019-04-20T15:29:20.159Z,12.10
2019-04-20T15:31:52.283Z,10.05
2019-04-20T15:34:24.650Z,13.13
2019-04-20T15:36:55.962Z,13.00
2019-04-20T15:39:27.350Z,13.18
2019-04-20T15:41:59.096Z,27.02
2019-04-20T15:44:29.473Z,11.22
2019-04-20T15:46:59.691Z,14.58
2019-04-20T15:49:30.018Z,14.98
2019-04-20T15:52:01.653Z,10.32
2019-04-20T15:54:33.705Z,13.03
2019-04-20T15:57:12.329Z,14.35
2019-04-20T15:59:35.964Z,14.50
2019-04-20T16:02:09.257Z,11.25
2019-04-20T16:07:17.182Z,10.82
2019-04-20T16:09:48.453Z,9.28
2019-04-20T16:12:20.695Z,12.45
2019-04-20T16:14:51.420Z,18.55
2019-04-20T16:17:24.286Z,18.00
2019-04-20T16:20:09.113Z,8.43
2019-04-20T16:22:36.303Z,10.80
2019-04-20T16:25:15.452Z,9.05
2019-04-20T16:27:45.830Z,15.18
2019-04-20T16:30:17.850Z,6.87
2019-04-20T16:32:48.296Z,8.65
2019-04-20T16:35:18.753Z,10.08
2019-04-20T16:37:50.757Z,10.95
2019-04-20T16:40:25.322Z,8.85
2019-04-20T16:42:56.389Z,8.78
2019-04-20T16:45:27.867Z,9.63
2019-04-20T16:47:59.988Z,7.40
2019-04-20T16:50:31.098Z,6.17
2019-04-20T16:53:02.946Z,6.55
2019-04-20T16:55:34.740Z,8.70
2019-04-20T16:58:06.321Z,13.43
2019-04-20T17:00:37.713Z,6.62
2019-04-20T17:03:09.118Z,6.22
2019-04-20T17:05:39.543Z,7.00
2019-04-20T17:08:11.271Z,4.78
2019-04-20T17:10:42.053Z,6.33
2019-04-20T17:13:16.719Z,7.78
2019-04-20T17:15:49.848Z,7.50
2019-04-20T17:18:21.292Z,14.33
2019-04-20T17:20:53.366Z,6.70
2019-04-20T17:23:27.651Z,8.38
2019-04-20T17:25:59.819Z,9.88
2019-04-20T17:28:49.035Z,10.80
2019-04-20T17:31:33.569Z,7.15
2019-04-20T17:34:25.025Z,10.88
2019-04-20T17:36:39.894Z,9.03
2019-04-20T17:39:13.443Z,6.80
2019-04-20T17:42:01.862Z,9.78
2019-04-20T17:44:30.298Z,8.50
2019-04-20T17:46:58.682Z,10.58
2019-04-20T17:49:31.406Z,8.05
2019-04-20T17:52:12.330Z,15.05
2019-04-20T17:54:27.192Z,9.70
2019-04-20T17:56:58.203Z,7.33
2019-04-20T17:59:30.283Z,12.63
2019-04-20T18:02:17.737Z,16.65
2019-04-20T18:05:17.599Z,8.33
2019-04-20T18:07:40.721Z,11.33
2019-04-20T18:10:11.459Z,13.62
2019-04-20T18:12:34.386Z,11.55
2019-04-20T18:15:21.743Z,8.95
2019-04-20T18:18:15.402Z,9.80
2019-04-20T18:20:32.713Z,18.12
2019-04-20T18:23:04.331Z,12.13
2019-04-20T18:26:01.498Z,7.40
2019-04-20T18:28:20.925Z,10.68
2019-04-20T18:30:52.550Z,12.33
2019-04-20T18:33:24.959Z,14.38
2019-04-20T18:35:54.055Z,12.50
2019-04-20T18:38:26.057Z,12.53
2019-04-20T18:41:02.669Z,15.78
2019-04-20T18:43:29.580Z,10.00
2019-04-20T18:46:18.051Z,15.00
2019-04-20T18:48:54.359Z,10.28
2019-04-20T18:51:05.846Z,6.95
2019-04-20T18:53:42.714Z,12.33
2019-04-20T18:56:09.503Z,8.95
2019-04-20T18:58:40.831Z,15.25
2019-04-20T19:01:12.848Z,13.05
2019-04-20T19:03:45.533Z,11.22
2019-04-20T19:06:16.032Z,14.87
2019-04-20T19:08:51.750Z,10.58
2019-04-20T19:11:21.620Z,12.13
2019-04-20T19:14:17.387Z,15.43
2019-04-20T19:16:55.693Z,11.57
2019-04-20T19:19:25.754Z,11.70
2019-04-20T19:21:49.944Z,14.78
2019-04-20T19:24:26.022Z,13.83
2019-04-20T19:26:58.324Z,10.50
2019-04-20T19:29:34.403Z,12.95
2019-04-20T19:32:17.958Z,13.08
2019-04-20T19:34:44.811Z,11.57
2019-04-20T19:37:14.070Z,12.55
2019-04-20T19:39:49.397Z,11.53
2019-04-20T19:42:25.233Z,20.52
2019-04-20T19:44:53.876Z,23.92
2019-04-20T19:47:35.317Z,13.35
2019-04-20T19:49:56.448Z,16.32
2019-04-20T19:52:46.354Z,14.58
2019-04-20T19:57:37.224Z,19.20
2019-04-20T20:02:25.867Z,14.38
2019-04-20T20:05:02.727Z,9.25
2019-04-20T20:07:41.196Z,15.85
2019-04-20T20:10:07.754Z,14.50
2019-04-20T20:12:49.382Z,12.82
2019-04-20T20:15:24.267Z,10.32
2019-04-20T20:18:12.778Z,22.00
2019-04-20T20:20:41.177Z,14.90
2019-04-20T20:22:57.286Z,14.58
2019-04-20T20:25:32.964Z,18.30
2019-04-20T20:28:13.444Z,20.48
2019-04-20T20:30:42.195Z,16.48
2019-04-20T20:33:22.107Z,16.57
2019-04-20T20:35:45.893Z,17.30
2019-04-20T20:38:18.335Z,16.60
2019-04-20T20:40:52.408Z,15.93
2019-04-20T20:43:21.788Z,15.20
2019-04-20T20:45:56.431Z,20.95
2019-04-20T20:48:30.034Z,11.93
2019-04-20T20:51:04.917Z,12.58
2019-04-20T20:53:35.358Z,14.78
2019-04-20T20:56:09.242Z,17.65
2019-04-20T20:58:43.850Z,23.57
2019-04-20T21:01:09.969Z,14.23
2019-04-20T21:03:43.529Z,17.65
2019-04-20T21:06:11.755Z,14.15
2019-04-20T21:08:48.685Z,18.80
2019-04-20T21:11:22.005Z,14.53
2019-04-20T21:13:50.989Z,16.02
2019-04-20T21:16:26.638Z,13.38
2019-04-20T21:19:12.939Z,21.45
2019-04-20T21:21:39.035Z,15.88
2019-04-20T21:24:10.828Z,17.67
2019-04-20T21:26:44.310Z,20.97
2019-04-20T21:29:10.425Z,18.42
2019-04-20T21:31:43.417Z,20.92
2019-04-20T21:34:18.099Z,15.20
2019-04-20T21:36:47.282Z,21.80
2019-04-20T21:41:58.532Z,20.68
2019-04-20T21:44:28.499Z,20.60
2019-04-20T21:46:56.224Z,25.77
2019-04-20T21:49:43.692Z,21.62
2019-04-20T21:52:02.960Z,33.13
2019-04-20T21:54:30.218Z,23.38
2019-04-20T21:57:03.855Z,28.73
2019-04-20T21:59:41.960Z,24.45
2019-04-20T22:02:16.692Z,23.55
2019-04-20T22:07:08.119Z,29.02
2019-04-20T22:09:45.295Z,27.27
2019-04-20T22:12:11.949Z,24.60
2019-04-20T22:14:43.818Z,26.50
2019-04-20T22:17:21.135Z,25.55
2019-04-20T22:20:02.929Z,29.90
2019-04-20T22:22:38.692Z,29.60
2019-04-20T22:25:02.601Z,29.18
2019-04-20T22:27:27.871Z,33.18
2019-04-20T22:29:54.460Z,28.15
2019-04-20T22:32:25.874Z,26.37
2019-04-20T22:35:01.521Z,23.65
2019-04-20T22:37:31.911Z,24.87
2019-04-20T22:40:03.266Z,36.88
2019-04-20T22:42:42.610Z,29.98
2019-04-20T22:45:12.395Z,24.87
2019-04-20T22:47:40.845Z,32.10
2019-04-20T22:50:24.939Z,40.40
2019-04-20T22:52:55.289Z,37.58
2019-04-20T22:55:41.088Z,44.73
2019-04-20T22:57:57.433Z,41.40
2019-04-20T23:00:31.288Z,36.33
2019-04-20T23:02:52.499Z,41.85
2019-04-20T23:05:22.838Z,43.28
2019-04-20T23:07:53.076Z,35.33
2019-04-20T23:10:30.453Z,33.02
2019-04-20T23:12:58.259Z,31.07
2019-04-20T23:15:28.054Z,33.53
2019-04-20T23:17:58.377Z,30.77
2019-04-20T23:20:32.645Z,37.00
2019-04-20T23:23:02.883Z,34.13
2019-04-20T23:25:36.596Z,31.95
2019-04-20T23:28:11.349Z,30.37
2019-04-20T23:30:40.682Z,34.25
2019-04-20T23:33:11.803Z,31.75
2019-04-20T23:35:46.481Z,32.50
2019-04-20T23:38:17.975Z,24.82
2019-04-20T23:40:47.833Z,24.77
2019-04-20T23:43:25.386Z,22.13
2019-04-20T23:46:19.616Z,24.23
2019-04-20T23:49:19.976Z,25.05
2019-04-20T23:52:05.518Z,24.95
2019-04-20T23:54:20.180Z,29.63
2019-04-20T23:56:45.860Z,26.48
2019-04-20T23:59:19.210Z,27.35
